createdAt,value
2022-11-02T00:01:42.465Z,99935.00
2022-11-02T00:04:11.518Z,99935.00
2022-11-02T00:06:41.219Z,99939.00
2022-11-02T00:09:09.273Z,99942.00
2022-11-02T00:11:38.300Z,99929.00
2022-11-02T00:14:06.487Z,99937.00
2022-11-02T00:16:40.869Z,99922.00
2022-11-02T00:19:10.215Z,99950.00
2022-11-02T00:21:38.963Z,99947.00
2022-11-02T00:24:09.644Z,99952.00
2022-11-02T00:26:38.588Z,99962.00
2022-11-02T00:29:08.056Z,99955.00
2022-11-02T00:31:37.664Z,99946.00
2022-11-02T00:34:05.657Z,99945.00
2022-11-02T00:36:34.960Z,99946.00
2022-11-02T00:39:03.016Z,99952.00
2022-11-02T00:41:31.019Z,99961.00
2022-11-02T00:43:59.161Z,99954.00
2022-11-02T00:46:27.193Z,99955.00
2022-11-02T00:48:56.608Z,99962.00
2022-11-02T00:51:25.067Z,99960.00
2022-11-02T00:53:53.231Z,99961.00
2022-11-02T00:56:21.467Z,99963.00
2022-11-02T00:58:49.501Z,99950.00
2022-11-02T01:01:17.632Z,99954.00
2022-11-02T01:03:45.896Z,99955.00
2022-11-02T01:06:17.116Z,99960.00
2022-11-02T01:08:45.128Z,99965.00
2022-11-02T01:11:16.358Z,99964.00
2022-11-02T01:13:46.114Z,99955.00
2022-11-02T01:16:15.766Z,99955.00
2022-11-02T01:18:44.468Z,99955.00
2022-11-02T01:21:15.175Z,99948.00
2022-11-02T01:23:43.216Z,99951.00
2022-11-02T01:26:12.594Z,99956.00
2022-11-02T01:28:42.403Z,99952.00
2022-11-02T01:31:12.502Z,99958.00
2022-11-02T01:33:45.950Z,99953.00
2022-11-02T01:36:17.545Z,99952.00
2022-11-02T01:38:45.626Z,99955.00
2022-11-02T01:41:13.847Z,99958.00
2022-11-02T01:43:44.612Z,99960.00
2022-11-02T01:46:19.631Z,99943.00
2022-11-02T01:48:57.700Z,99919.00
2022-11-02T01:51:33.611Z,99955.00
2022-11-02T01:54:08.904Z,99927.00
2022-11-02T01:56:38.919Z,99953.00
2022-11-02T01:59:13.619Z,99959.00
2022-11-02T02:01:41.874Z,99947.00
2022-11-02T02:04:12.329Z,99950.00
2022-11-02T02:06:43.623Z,99955.00
2022-11-02T02:09:14.581Z,99956.00
2022-11-02T02:11:42.962Z,99949.00
2022-11-02T02:14:15.786Z,99950.00
2022-11-02T02:17:30.267Z,99951.00
2022-11-02T02:20:07.232Z,99949.00
2022-11-02T02:23:22.949Z,99949.00
2022-11-02T02:26:44.850Z,99952.00
2022-11-02T02:29:22.553Z,99947.00
2022-11-02T02:31:59.857Z,99951.00
2022-11-02T02:34:38.457Z,99951.00
2022-11-02T02:37:11.382Z,99943.00
2022-11-02T02:39:45.263Z,99943.00
2022-11-02T02:42:22.040Z,99934.00
2022-11-02T02:45:02.199Z,99935.00
2022-11-02T02:47:34.493Z,99922.00
2022-11-02T02:50:12.269Z,99940.00
2022-11-02T02:52:42.843Z,99937.00
2022-11-02T02:55:19.378Z,99929.00
2022-11-02T02:57:50.445Z,99931.00
2022-11-02T03:00:20.382Z,99944.00
2022-11-02T03:03:01.049Z,99930.00
2022-11-02T03:05:35.099Z,99931.00
2022-11-02T03:08:11.562Z,99925.00
2022-11-02T03:10:49.668Z,99927.00
2022-11-02T03:13:39.781Z,99922.00
2022-11-02T03:16:25.383Z,99927.00
2022-11-02T03:19:03.332Z,99906.00
2022-11-02T03:21:40.988Z,99925.00
2022-11-02T03:24:17.869Z,99929.00
2022-11-02T03:27:01.319Z,99927.00
2022-11-02T03:29:40.983Z,99935.00
2022-11-02T03:32:22.027Z,99936.00
2022-11-02T03:34:56.590Z,99937.00
2022-11-02T03:37:30.657Z,99950.00
2022-11-02T03:40:11.865Z,99940.00
2022-11-02T03:42:44.197Z,99941.00
2022-11-02T03:45:18.769Z,99932.00
2022-11-02T03:47:56.492Z,99934.00
2022-11-02T03:50:27.538Z,99932.00
2022-11-02T03:53:02.048Z,99925.00
2022-11-02T03:55:36.902Z,99934.00
2022-11-02T03:58:05.907Z,99938.00
2022-11-02T04:00:37.056Z,99927.00
2022-11-02T04:03:13.785Z,99901.00
2022-11-02T04:05:45.353Z,99930.00
2022-11-02T04:08:31.749Z,99935.00
2022-11-02T04:11:21.000Z,99927.00
2022-11-02T04:14:08.607Z,99933.00
2022-11-02T04:16:39.876Z,99936.00
2022-11-02T04:19:28.350Z,99937.00
2022-11-02T04:22:19.203Z,99933.00
2022-11-02T04:25:08.841Z,99930.00
2022-11-02T04:27:37.725Z,99923.00
2022-11-02T04:30:07.071Z,99919.00
2022-11-02T04:32:57.006Z,99929.00
2022-11-02T04:35:28.465Z,99937.00
2022-11-02T04:38:15.156Z,99918.00
2022-11-02T04:40:43.397Z,99940.00
2022-11-02T04:43:11.538Z,99931.00
2022-11-02T04:45:40.201Z,99934.00
2022-11-02T04:48:10.779Z,99932.00
2022-11-02T04:50:41.180Z,99937.00
2022-11-02T04:53:10.572Z,99937.00
2022-11-02T04:55:40.407Z,99930.00
2022-11-02T04:58:08.753Z,99928.00
2022-11-02T05:00:36.875Z,99933.00
2022-11-02T05:03:09.733Z,99922.00
2022-11-02T05:05:43.525Z,99915.00
2022-11-02T05:08:11.730Z,99918.00
2022-11-02T05:10:39.972Z,99910.00
2022-11-02T05:13:08.086Z,99920.00
2022-11-02T05:15:40.344Z,99911.00
2022-11-02T05:18:10.259Z,99917.00
2022-11-02T05:20:40.060Z,99905.00
2022-11-02T05:23:09.584Z,99916.00
2022-11-02T05:25:37.654Z,99888.00
2022-11-02T05:28:06.135Z,99923.00
2022-11-02T05:30:34.317Z,99912.00
2022-11-02T05:33:03.081Z,99918.00
2022-11-02T05:35:31.353Z,99910.00
2022-11-02T05:37:59.425Z,99910.00
2022-11-02T05:40:28.814Z,99879.00
2022-11-02T05:43:00.946Z,99903.00
2022-11-02T05:45:30.181Z,99905.00
2022-11-02T05:48:00.962Z,99905.00
2022-11-02T05:50:29.623Z,99908.00
2022-11-02T05:52:57.745Z,99917.00
2022-11-02T05:55:25.872Z,99906.00
2022-11-02T05:57:56.889Z,99904.00
2022-11-02T06:00:25.242Z,99917.00
2022-11-02T06:02:58.117Z,99914.00
2022-11-02T06:05:27.224Z,99913.00
2022-11-02T06:07:59.726Z,99911.00
2022-11-02T06:10:28.273Z,99918.00
2022-11-02T06:12:59.436Z,99909.00
2022-11-02T06:15:28.533Z,99911.00
2022-11-02T06:17:56.612Z,99904.00
2022-11-02T06:20:24.990Z,99909.00
2022-11-02T06:22:53.053Z,99907.00
2022-11-02T06:25:21.081Z,99914.00
2022-11-02T06:27:53.451Z,99902.00
2022-11-02T06:30:24.611Z,99866.00
2022-11-02T06:32:54.818Z,99905.00
2022-11-02T06:35:24.020Z,99911.00
2022-11-02T06:37:52.077Z,99898.00
2022-11-02T06:40:22.608Z,99903.00
2022-11-02T06:43:15.573Z,99913.00
2022-11-02T06:45:46.673Z,99916.00
2022-11-02T06:48:14.737Z,99911.00
2022-11-02T06:50:42.878Z,99914.00
2022-11-02T06:53:11.213Z,99916.00
2022-11-02T06:55:39.328Z,99914.00
2022-11-02T06:58:07.366Z,99917.00
2022-11-02T07:00:35.469Z,99920.00
2022-11-02T07:03:07.596Z,99930.00
2022-11-02T07:05:36.723Z,99929.00
2022-11-02T07:08:06.072Z,99929.00
2022-11-02T07:10:35.912Z,99939.00
2022-11-02T07:13:04.473Z,99950.00
2022-11-02T07:15:32.615Z,99937.00
2022-11-02T07:18:00.669Z,99943.00
2022-11-02T07:20:31.241Z,99953.00
2022-11-02T07:23:01.739Z,99963.00
2022-11-02T07:25:32.012Z,99966.00
2022-11-02T07:28:01.245Z,99964.00
2022-11-02T07:30:30.042Z,99961.00
2022-11-02T07:32:58.161Z,99970.00
2022-11-02T07:35:26.755Z,99955.00
2022-11-02T07:38:01.150Z,99968.00
2022-11-02T07:40:31.021Z,99970.00
2022-11-02T07:42:59.761Z,99986.00
2022-11-02T07:45:48.046Z,99982.00
2022-11-02T07:48:16.062Z,99977.00
2022-11-02T07:50:44.101Z,99985.00
2022-11-02T07:53:13.688Z,99978.00
2022-11-02T07:55:41.887Z,99992.00
2022-11-02T07:58:13.994Z,99987.00
2022-11-02T08:00:43.084Z,99994.00
2022-11-02T08:03:14.645Z,100004.00
2022-11-02T08:05:44.142Z,100002.00
2022-11-02T08:08:18.681Z,100006.00
2022-11-02T08:10:50.092Z,99997.00
2022-11-02T08:13:21.758Z,100019.00
2022-11-02T08:15:51.710Z,100016.00
2022-11-02T08:18:22.357Z,100015.00
2022-11-02T08:20:50.783Z,100011.00
2022-11-02T08:23:21.746Z,100025.00
2022-11-02T08:25:51.953Z,100029.00
2022-11-02T08:28:23.625Z,100038.00
2022-11-02T08:30:52.201Z,100029.00
2022-11-02T08:33:22.019Z,100035.00
2022-11-02T08:35:50.366Z,100036.00
2022-11-02T08:38:22.406Z,100036.00
2022-11-02T08:40:50.653Z,100031.00
2022-11-02T08:43:18.761Z,100036.00
2022-11-02T08:46:13.834Z,100038.00
2022-11-02T08:48:35.474Z,100032.00
2022-11-02T08:51:05.482Z,100038.00
2022-11-02T08:53:34.807Z,100041.00
2022-11-02T08:56:02.903Z,100039.00
2022-11-02T08:58:31.114Z,100039.00
2022-11-02T09:00:59.270Z,100045.00
2022-11-02T09:03:28.296Z,100052.00
2022-11-02T09:06:01.774Z,100053.00
2022-11-02T09:08:30.982Z,100037.00
2022-11-02T09:11:03.785Z,100039.00
2022-11-02T09:13:32.035Z,100037.00
2022-11-02T09:16:02.603Z,100035.00
2022-11-02T09:18:31.155Z,100031.00
2022-11-02T09:21:03.267Z,100041.00
2022-11-02T09:23:32.475Z,100041.00
2022-11-02T09:26:01.957Z,100039.00
2022-11-02T09:28:30.012Z,100033.00
2022-11-02T09:30:58.108Z,100045.00
2022-11-02T09:33:26.142Z,100049.00
2022-11-02T09:35:54.821Z,100047.00
2022-11-02T09:38:22.881Z,100045.00
2022-11-02T09:41:07.314Z,100053.00
2022-11-02T09:43:51.104Z,100058.00
2022-11-02T09:46:26.897Z,100050.00
2022-11-02T09:48:59.710Z,100055.00
2022-11-02T09:51:32.866Z,100038.00
2022-11-02T09:54:13.285Z,100040.00
2022-11-02T09:56:45.521Z,100042.00
2022-11-02T09:59:17.131Z,100036.00
2022-11-02T10:02:01.393Z,100047.00
2022-11-02T10:05:01.441Z,100052.00
2022-11-02T10:08:04.502Z,100050.00
2022-11-02T10:10:39.424Z,100058.00
2022-11-02T10:13:26.200Z,100056.00
2022-11-02T10:16:01.383Z,100032.00
2022-11-02T10:18:31.163Z,100060.00
2022-11-02T10:21:02.214Z,100062.00
2022-11-02T10:23:35.657Z,100062.00
2022-11-02T10:26:05.072Z,100056.00
2022-11-02T10:28:40.693Z,100056.00
2022-11-02T10:31:25.851Z,100054.00
2022-11-02T10:33:58.340Z,100053.00
2022-11-02T10:36:51.514Z,100049.00
2022-11-02T10:39:33.929Z,100050.00
2022-11-02T10:42:27.884Z,100056.00
2022-11-02T10:45:21.980Z,100050.00
2022-11-02T10:48:03.969Z,100060.00
2022-11-02T10:50:47.952Z,100019.00
2022-11-02T10:56:16.941Z,100057.00
2022-11-02T10:58:53.695Z,100066.00
2022-11-02T11:01:23.126Z,100067.00
2022-11-02T11:03:57.491Z,100073.00
2022-11-02T11:06:29.700Z,100056.00
2022-11-02T11:09:04.036Z,100060.00
2022-11-02T11:11:35.614Z,100068.00
2022-11-02T11:19:52.193Z,100064.00
2022-11-02T11:22:30.448Z,100051.00
2022-11-02T11:25:27.716Z,100044.00
2022-11-02T11:27:58.335Z,100033.00
2022-11-02T11:33:23.004Z,100047.00
2022-11-02T11:35:52.605Z,100052.00
2022-11-02T11:38:27.074Z,100052.00
2022-11-02T11:40:58.501Z,100056.00
2022-11-02T11:43:34.887Z,100055.00
2022-11-02T11:46:07.373Z,100047.00
2022-11-02T11:48:41.401Z,100058.00
2022-11-02T11:51:32.147Z,100046.00
2022-11-02T11:54:23.350Z,100054.00
2022-11-02T11:56:54.077Z,100059.00
2022-11-02T11:59:33.382Z,100065.00
2022-11-02T12:02:04.189Z,100052.00
2022-11-02T12:04:36.857Z,100058.00
2022-11-02T12:07:28.910Z,100063.00
2022-11-02T12:10:12.027Z,100056.00
2022-11-02T12:13:06.561Z,100049.00
2022-11-02T12:15:57.625Z,100046.00
2022-11-02T12:18:46.193Z,100047.00
2022-11-02T12:21:39.873Z,100065.00
2022-11-02T12:24:39.664Z,100050.00
2022-11-02T12:27:25.228Z,100050.00
2022-11-02T12:30:10.052Z,100052.00
2022-11-02T12:32:55.964Z,100046.00
2022-11-02T12:35:51.687Z,100050.00
2022-11-02T12:38:42.735Z,100052.00
2022-11-02T12:41:14.571Z,100055.00
2022-11-02T12:43:46.714Z,100050.00
2022-11-02T12:46:38.447Z,100057.00
2022-11-02T12:49:35.876Z,100063.00
2022-11-02T12:52:19.165Z,100060.00
2022-11-02T12:54:53.028Z,100060.00
2022-11-02T12:57:26.655Z,100066.00
2022-11-02T13:00:00.923Z,100061.00
2022-11-02T13:02:39.705Z,100062.00
2022-11-02T13:05:14.319Z,100070.00
2022-11-02T13:07:49.724Z,100066.00
2022-11-02T13:10:25.727Z,100061.00
2022-11-02T13:12:59.317Z,100064.00
2022-11-02T13:15:32.893Z,100073.00
2022-11-02T13:18:06.681Z,100061.00
2022-11-02T13:20:43.616Z,100064.00
2022-11-02T13:23:27.940Z,100067.00
2022-11-02T13:26:01.991Z,100077.00
2022-11-02T13:28:42.310Z,100082.00
2022-11-02T13:31:17.912Z,100076.00
2022-11-02T13:33:50.451Z,100080.00
2022-11-02T13:36:19.468Z,100067.00
2022-11-02T13:38:52.408Z,100051.00
2022-11-02T13:41:48.335Z,100077.00
2022-11-02T13:44:34.991Z,100089.00
2022-11-02T13:47:29.612Z,100084.00
2022-11-02T13:50:01.341Z,100070.00
2022-11-02T13:52:39.773Z,100079.00
2022-11-02T13:55:15.509Z,100074.00
2022-11-02T13:57:49.468Z,100058.00
2022-11-02T14:00:37.812Z,100058.00
2022-11-02T14:03:16.448Z,100060.00
2022-11-02T14:05:50.213Z,100061.00
2022-11-02T14:08:31.164Z,100058.00
2022-11-02T14:11:23.817Z,100052.00
2022-11-02T14:14:17.900Z,100060.00
2022-11-02T14:16:58.875Z,100051.00
2022-11-02T14:19:33.470Z,100053.00
2022-11-02T14:22:14.163Z,100047.00
2022-11-02T14:25:17.970Z,100055.00
2022-11-02T14:27:46.911Z,100051.00
2022-11-02T14:30:45.562Z,100042.00
2022-11-02T14:33:42.047Z,100054.00
2022-11-02T14:36:30.269Z,100063.00
2022-11-02T14:39:14.988Z,100077.00
2022-11-02T14:42:08.957Z,100060.00
2022-11-02T14:45:40.259Z,100058.00
2022-11-02T14:48:17.145Z,100079.00
2022-11-02T14:50:59.471Z,100069.00
2022-11-02T14:53:32.916Z,100063.00
2022-11-02T14:56:01.256Z,100067.00
2022-11-02T14:58:36.428Z,100062.00
2022-11-02T15:03:41.242Z,100066.00
2022-11-02T15:06:20.062Z,100079.00
2022-11-02T15:08:55.767Z,100083.00
2022-11-02T15:11:48.158Z,100076.00
2022-11-02T15:14:57.102Z,100093.00
2022-11-02T15:18:00.009Z,100100.00
2022-11-02T15:20:32.744Z,100099.00
2022-11-02T15:23:30.406Z,100103.00
2022-11-02T15:26:00.268Z,100109.00
2022-11-02T15:28:33.432Z,100108.00
2022-11-02T15:31:07.469Z,100123.00
2022-11-02T15:33:40.614Z,100123.00
2022-11-02T15:36:23.848Z,100122.00
2022-11-02T15:38:54.458Z,100123.00
2022-11-02T15:41:37.215Z,100125.00
2022-11-02T15:44:23.000Z,100123.00
2022-11-02T15:47:07.681Z,100130.00
2022-11-02T15:50:19.363Z,100147.00
2022-11-02T15:53:23.234Z,100119.00
2022-11-02T15:56:21.441Z,100131.00
2022-11-02T15:59:22.353Z,100134.00
2022-11-02T16:02:13.301Z,100147.00
2022-11-02T16:04:46.902Z,100142.00
2022-11-02T16:07:19.603Z,100147.00
2022-11-02T16:09:49.372Z,100146.00
2022-11-02T16:12:20.077Z,100147.00
2022-11-02T16:14:55.864Z,100148.00
2022-11-02T16:17:26.734Z,100158.00
2022-11-02T16:20:11.973Z,100092.00
2022-11-02T16:22:41.136Z,100150.00
2022-11-02T16:25:20.198Z,100143.00
2022-11-02T16:27:48.543Z,100149.00
2022-11-02T16:30:22.219Z,100149.00
2022-11-02T16:32:59.228Z,100157.00
2022-11-02T16:35:28.530Z,100152.00
2022-11-02T16:37:56.718Z,100160.00
2022-11-02T16:40:26.509Z,100162.00
2022-11-02T16:42:55.760Z,100171.00
2022-11-02T16:45:42.103Z,100175.00
2022-11-02T16:48:25.560Z,100169.00
2022-11-02T16:51:18.819Z,100155.00
2022-11-02T16:53:46.866Z,100171.00
2022-11-02T16:56:28.731Z,100170.00
2022-11-02T16:59:02.300Z,100177.00
2022-11-02T17:01:38.752Z,100182.00
2022-11-02T17:04:19.321Z,100189.00
2022-11-02T17:06:50.152Z,100187.00
2022-11-02T17:09:28.025Z,100179.00
2022-11-02T17:12:01.137Z,100183.00
2022-11-02T17:14:30.034Z,100179.00
2022-11-02T17:17:01.495Z,100189.00
2022-11-02T17:19:47.596Z,100191.00
2022-11-02T17:22:26.371Z,100186.00
2022-11-02T17:25:13.936Z,100185.00
2022-11-02T17:27:43.396Z,100192.00
2022-11-02T17:30:48.378Z,100184.00
2022-11-02T17:33:27.246Z,100187.00
2022-11-02T17:35:57.650Z,100186.00
2022-11-02T17:38:28.304Z,100199.00
2022-11-02T17:40:57.037Z,100187.00
2022-11-02T17:43:25.535Z,100189.00
2022-11-02T17:45:58.259Z,100195.00
2022-11-02T17:48:29.263Z,100191.00
2022-11-02T17:51:00.499Z,100188.00
2022-11-02T17:53:28.854Z,100197.00
2022-11-02T17:55:57.430Z,100206.00
2022-11-02T17:58:26.844Z,100206.00
2022-11-02T18:00:55.405Z,100202.00
2022-11-02T18:03:29.806Z,100168.00
2022-11-02T18:06:00.772Z,100198.00
2022-11-02T18:08:29.544Z,100211.00
2022-11-02T18:10:58.185Z,100203.00
2022-11-02T18:13:27.668Z,100199.00
2022-11-02T18:15:55.792Z,100203.00
2022-11-02T18:18:23.913Z,100199.00
2022-11-02T18:20:51.986Z,100193.00
2022-11-02T18:23:20.581Z,100193.00
2022-11-02T18:25:48.787Z,100189.00
2022-11-02T18:28:17.018Z,100187.00
2022-11-02T18:30:46.502Z,100198.00
2022-11-02T18:33:15.167Z,100182.00
2022-11-02T18:35:44.304Z,100181.00
2022-11-02T18:38:12.995Z,100184.00
2022-11-02T18:40:41.110Z,100186.00
2022-11-02T18:43:09.720Z,100191.00
2022-11-02T18:45:38.029Z,100188.00
2022-11-02T18:48:09.223Z,100190.00
2022-11-02T18:50:37.434Z,100186.00
2022-11-02T18:53:05.473Z,100181.00
2022-11-02T18:55:33.552Z,100199.00
2022-11-02T18:58:01.602Z,100176.00
2022-11-02T19:00:29.766Z,100186.00
2022-11-02T19:02:57.870Z,100180.00
2022-11-02T19:05:45.379Z,100186.00
2022-11-02T19:08:31.382Z,100186.00
2022-11-02T19:10:59.484Z,100189.00
2022-11-02T19:13:27.504Z,100193.00
2022-11-02T19:15:55.725Z,100171.00
2022-11-02T19:18:23.721Z,100171.00
2022-11-02T19:20:53.262Z,100175.00
2022-11-02T19:23:21.364Z,100175.00
2022-11-02T19:25:52.552Z,100173.00
2022-11-02T19:28:20.700Z,100164.00
2022-11-02T19:30:48.865Z,100172.00
2022-11-02T19:33:17.091Z,100156.00
2022-11-02T19:35:56.526Z,100171.00
2022-11-02T19:38:24.693Z,100166.00
2022-11-02T19:41:02.361Z,100165.00
2022-11-02T19:43:30.577Z,100165.00
2022-11-02T19:46:02.544Z,100187.00
2022-11-02T19:48:31.849Z,100162.00
2022-11-02T19:51:09.136Z,100161.00
2022-11-02T19:53:37.937Z,100163.00
2022-11-02T19:56:10.288Z,100175.00
2022-11-02T19:58:39.385Z,100181.00
2022-11-02T20:01:08.986Z,100180.00
2022-11-02T20:03:38.116Z,100183.00
2022-11-02T20:06:11.116Z,100181.00
2022-11-02T20:08:39.875Z,100180.00
2022-11-02T20:11:10.917Z,100187.00
2022-11-02T20:13:42.406Z,100184.00
2022-11-02T20:16:12.959Z,100184.00
2022-11-02T20:18:43.657Z,100192.00
2022-11-02T20:21:16.541Z,100196.00
2022-11-02T20:23:45.536Z,100210.00
2022-11-02T20:26:17.568Z,100203.00
2022-11-02T20:28:48.353Z,100202.00
2022-11-02T20:31:19.949Z,100215.00
2022-11-02T20:33:48.969Z,100214.00
2022-11-02T20:36:18.954Z,100211.00
2022-11-02T20:38:47.404Z,100219.00
2022-11-02T20:41:18.899Z,100215.00
2022-11-02T20:43:49.646Z,100215.00
2022-11-02T20:46:38.156Z,100200.00
2022-11-02T20:49:20.349Z,100213.00
2022-11-02T20:51:52.394Z,100215.00
2022-11-02T20:54:20.749Z,100217.00
2022-11-02T20:56:49.461Z,100211.00
2022-11-02T20:59:17.537Z,100223.00
2022-11-02T21:01:46.030Z,100217.00
2022-11-02T21:04:20.256Z,100218.00
2022-11-02T21:06:49.562Z,100230.00
2022-11-02T21:09:19.426Z,100231.00
2022-11-02T21:12:05.091Z,100225.00
2022-11-02T21:14:33.255Z,100234.00
2022-11-02T21:17:02.709Z,100228.00
2022-11-02T21:19:30.835Z,100234.00
2022-11-02T21:22:00.276Z,100217.00
2022-11-02T21:24:30.397Z,100232.00
2022-11-02T21:26:58.497Z,100237.00
2022-11-02T21:29:26.521Z,100239.00
2022-11-02T21:31:54.553Z,100233.00
2022-11-02T21:34:22.580Z,100229.00
2022-11-02T21:36:50.716Z,100233.00
2022-11-02T21:39:18.874Z,100216.00
2022-11-02T21:41:48.319Z,100234.00
2022-11-02T21:44:16.322Z,100223.00
2022-11-02T21:46:44.320Z,100221.00
2022-11-02T21:49:12.952Z,100216.00
2022-11-02T21:51:42.763Z,100216.00
2022-11-02T21:54:11.102Z,100227.00
2022-11-02T21:56:39.630Z,100217.00
2022-11-02T21:59:09.806Z,100213.00
2022-11-02T22:01:47.819Z,100217.00
2022-11-02T22:04:19.461Z,100209.00
2022-11-02T22:06:47.573Z,100204.00
2022-11-02T22:09:15.641Z,100212.00
2022-11-02T22:11:44.861Z,100212.00
2022-11-02T22:14:14.172Z,100193.00
2022-11-02T22:16:44.409Z,100204.00
2022-11-02T22:19:15.185Z,100195.00
2022-11-02T22:21:46.104Z,100195.00
2022-11-02T22:24:14.148Z,100190.00
2022-11-02T22:26:42.626Z,100189.00
2022-11-02T22:29:10.859Z,100192.00
2022-11-02T22:31:42.030Z,100197.00
2022-11-02T22:34:12.389Z,100193.00
2022-11-02T22:36:45.046Z,100182.00
2022-11-02T22:39:13.927Z,100200.00
2022-11-02T22:41:44.222Z,100192.00
2022-11-02T22:44:15.521Z,100196.00
2022-11-02T22:46:47.600Z,100200.00
2022-11-02T22:49:18.235Z,100188.00
2022-11-02T22:51:49.304Z,100187.00
2022-11-02T22:54:19.937Z,100196.00
2022-11-02T22:56:49.874Z,100156.00
2022-11-02T22:59:18.155Z,100180.00
2022-11-02T23:01:47.622Z,100177.00
2022-11-02T23:04:15.850Z,100180.00
2022-11-02T23:06:43.857Z,100190.00
2022-11-02T23:09:12.538Z,100190.00
2022-11-02T23:11:40.783Z,100188.00
2022-11-02T23:14:12.291Z,100174.00
2022-11-02T23:16:42.526Z,100177.00
2022-11-02T23:19:22.146Z,100175.00
2022-11-02T23:22:15.496Z,100171.00
2022-11-02T23:25:03.713Z,100153.00
2022-11-02T23:27:33.156Z,100154.00
2022-11-02T23:30:18.782Z,100160.00
2022-11-02T23:32:46.764Z,100155.00
2022-11-02T23:35:33.972Z,100158.00
2022-11-02T23:38:04.347Z,100149.00
2022-11-02T23:40:33.477Z,100139.00
2022-11-02T23:43:01.535Z,100145.00
2022-11-02T23:45:29.551Z,100155.00
2022-11-02T23:48:03.871Z,100159.00
2022-11-02T23:50:51.763Z,100172.00
2022-11-02T23:53:40.388Z,100150.00
2022-11-02T23:56:34.268Z,100148.00
2022-11-02T23:59:08.024Z,100147.00
